sensor_id;sensor_type;location;lat;lon;timestamp;pressure;altitude;pressure_sealevel;temperature;humidity
39739;BME280;25422;48.286;8.484;2023-02-02T00:01:48;94796.84;;;0.01;100.00
39739;BME280;25422;48.286;8.484;2023-02-02T00:04:20;94795.19;;;-0.01;100.00
39739;BME280;25422;48.286;8.484;2023-02-02T00:06:46;94796.94;;;-0.01;100.00
39739;BME280;25422;48.286;8.484;2023-02-02T00:09:14;94800.06;;;0.04;100.00
39739;BME280;25422;48.286;8.484;2023-02-02T00:11:40;94777.34;;;0.11;100.00
39739;BME280;25422;48.286;8.484;2023-02-02T00:14:06;94781.59;;;0.12;100.00
39739;BME280;25422;48.286;8.484;2023-02-02T00:16:44;94782.34;;;0.14;100.00
39739;BME280;25422;48.286;8.484;2023-02-02T00:19:13;94787.19;;;0.19;100.00
39739;BME280;25422;48.286;8.484;2023-02-02T00:21:39;94786.28;;;0.20;100.00
39739;BME280;25422;48.286;8.484;2023-02-02T00:24:06;94781.03;;;0.21;100.00
39739;BME280;25422;48.286;8.484;2023-02-02T00:26:32;94784.72;;;0.17;100.00
39739;BME280;25422;48.286;8.484;2023-02-02T00:28:58;94788.09;;;0.17;100.00
39739;BME280;25422;48.286;8.484;2023-02-02T00:31:23;94807.59;;;0.07;100.00
39739;BME280;25422;48.286;8.484;2023-02-02T00:33:49;94781.13;;;0.05;100.00
39739;BME280;25422;48.286;8.484;2023-02-02T00:36:16;94796.84;;;0.01;100.00
39739;BME280;25422;48.286;8.484;2023-02-02T00:38:42;94793.88;;;0.07;100.00
39739;BME280;25422;48.286;8.484;2023-02-02T00:41:07;94789.69;;;0.06;100.00
39739;BME280;25422;48.286;8.484;2023-02-02T00:43:33;94789.69;;;0.06;100.00
39739;BME280;25422;48.286;8.484;2023-02-02T00:45:59;94775.25;;;0.03;100.00
39739;BME280;25422;48.286;8.484;2023-02-02T00:48:24;94768.25;;;0.05;100.00
39739;BME280;25422;48.286;8.484;2023-02-02T00:50:50;94771.84;;;0.03;100.00
39739;BME280;25422;48.286;8.484;2023-02-02T00:53:16;94783.25;;;0.13;100.00
39739;BME280;25422;48.286;8.484;2023-02-02T00:55:42;94789.59;;;0.07;100.00
39739;BME280;25422;48.286;8.484;2023-02-02T00:58:08;94782.59;;;0.09;100.00
39739;BME280;25422;48.286;8.484;2023-02-02T01:00:33;94788.03;;;0.05;100.00
39739;BME280;25422;48.286;8.484;2023-02-02T01:02:59;94779.41;;;0.06;100.00
39739;BME280;25422;48.286;8.484;2023-02-02T01:05:29;94769.09;;;0.06;100.00
39739;BME280;25422;48.286;8.484;2023-02-02T01:07:56;94771.84;;;0.17;100.00
39739;BME280;25422;48.286;8.484;2023-02-02T01:10:21;94771.28;;;0.12;100.00
39739;BME280;25422;48.286;8.484;2023-02-02T01:12:47;94776.44;;;0.12;100.00
39739;BME280;25422;48.286;8.484;2023-02-02T01:15:13;94774.88;;;0.09;100.00
39739;BME280;25422;48.286;8.484;2023-02-02T01:17:39;94785.81;;;0.13;100.00
39739;BME280;25422;48.286;8.484;2023-02-02T01:20:06;94781.97;;;0.06;100.00
39739;BME280;25422;48.286;8.484;2023-02-02T01:22:32;94781.03;;;0.07;100.00
39739;BME280;25422;48.286;8.484;2023-02-02T01:25:03;94781.69;;;0.10;100.00
39739;BME280;25422;48.286;8.484;2023-02-02T01:27:29;94781.88;;;0.07;100.00
39739;BME280;25422;48.286;8.484;2023-02-02T01:29:54;94791.31;;;0.07;100.00
39739;BME280;25422;48.286;8.484;2023-02-02T01:32:20;94784.81;;;0.15;100.00
39739;BME280;25422;48.286;8.484;2023-02-02T01:34:45;94784.34;;;0.09;100.00
39739;BME280;25422;48.286;8.484;2023-02-02T01:37:11;94774.88;;;0.09;100.00
39739;BME280;25422;48.286;8.484;2023-02-02T01:39:36;94774.72;;;0.12;100.00
39739;BME280;25422;48.286;8.484;2023-02-02T01:42:04;94777.28;;;0.12;100.00
39739;BME280;25422;48.286;8.484;2023-02-02T01:45:06;94788.41;;;0.13;100.00
39739;BME280;25422;48.286;8.484;2023-02-02T01:47:40;94794.28;;;0.15;100.00
39739;BME280;25422;48.286;8.484;2023-02-02T01:50:09;94789.88;;;0.17;100.00
39739;BME280;25422;48.286;8.484;2023-02-02T01:52:36;94783.81;;;0.18;100.00
39739;BME280;25422;48.286;8.484;2023-02-02T01:55:05;94782.81;;;0.21;100.00
39739;BME280;25422;48.286;8.484;2023-02-02T01:57:40;94777.91;;;0.16;100.00
39739;BME280;25422;48.286;8.484;2023-02-02T02:00:09;94786.47;;;0.16;100.00
39739;BME280;25422;48.286;8.484;2023-02-02T02:02:47;94777.34;;;0.11;100.00
39739;BME280;25422;48.286;8.484;2023-02-02T02:05:20;94786.81;;;0.10;100.00
39739;BME280;25422;48.286;8.484;2023-02-02T02:07:48;94779.19;;;0.09;100.00
39739;BME280;25422;48.286;8.484;2023-02-02T02:10:17;94784.16;;;0.12;100.00
39739;BME280;25422;48.286;8.484;2023-02-02T02:12:42;94783.25;;;0.13;100.00
39739;BME280;25422;48.286;8.484;2023-02-02T02:15:08;94774.97;;;0.08;100.00
39739;BME280;25422;48.286;8.484;2023-02-02T02:18:17;94768.72;;;0.12;100.00
39739;BME280;25422;48.286;8.484;2023-02-02T02:21:02;94768.91;;;0.09;100.00
39739;BME280;25422;48.286;8.484;2023-02-02T02:27:27;94774.44;;;0.17;100.00
39739;BME280;25422;48.286;8.484;2023-02-02T02:38:20;94780.47;;;0.16;100.00
39739;BME280;25422;48.286;8.484;2023-02-02T02:41:07;94783.91;;;0.16;100.00
39739;BME280;25422;48.286;8.484;2023-02-02T02:43:40;94787.09;;;0.20;100.00
39739;BME280;25422;48.286;8.484;2023-02-02T02:46:08;94783.72;;;0.20;100.00
39739;BME280;25422;48.286;8.484;2023-02-02T02:48:35;94787.84;;;0.22;100.00
39739;BME280;25422;48.286;8.484;2023-02-02T02:54:04;94797.22;;;0.23;100.00
39739;BME280;25422;48.286;8.484;2023-02-02T02:56:43;94788.41;;;0.27;100.00
39739;BME280;25422;48.286;8.484;2023-02-02T02:59:32;94784.53;;;0.20;100.00
39739;BME280;25422;48.286;8.484;2023-02-02T03:02:03;94787.19;;;0.19;100.00
39739;BME280;25422;48.286;8.484;2023-02-02T03:07:49;94784.63;;;0.19;100.00
39739;BME280;25422;48.286;8.484;2023-02-02T03:10:21;94784.00;;;0.15;100.00
39739;BME280;25422;48.286;8.484;2023-02-02T03:12:50;94786.47;;;0.16;100.00
39739;BME280;25422;48.286;8.484;2023-02-02T03:15:17;94790.44;;;0.22;100.00
39739;BME280;25422;48.286;8.484;2023-02-02T03:17:44;94792.16;;;0.22;100.00
39739;BME280;25422;48.286;8.484;2023-02-02T03:20:12;94795.75;;;0.19;100.00
39739;BME280;25422;48.286;8.484;2023-02-02T03:22:37;94795.56;;;0.22;100.00
39739;BME280;25422;48.286;8.484;2023-02-02T03:25:03;94789.78;;;0.19;100.00
39739;BME280;25422;48.286;8.484;2023-02-02T03:27:29;94800.72;;;0.22;100.00
39739;BME280;25422;48.286;8.484;2023-02-02T03:29:54;94796.38;;;0.23;100.00
39739;BME280;25422;48.286;8.484;2023-02-02T03:32:20;94790.13;;;0.27;100.00
39739;BME280;25422;48.286;8.484;2023-02-02T03:34:46;94785.28;;;0.22;100.00
39739;BME280;25422;48.286;8.484;2023-02-02T03:37:11;94792.25;;;0.20;100.00
39739;BME280;25422;48.286;8.484;2023-02-02T03:39:36;94806.06;;;0.19;100.00
39739;BME280;25422;48.286;8.484;2023-02-02T03:42:02;94800.06;;;0.19;100.00
39739;BME280;25422;48.286;8.484;2023-02-02T03:44:27;94804.59;;;0.15;100.00
39739;BME280;25422;48.286;8.484;2023-02-02T03:46:53;94803.75;;;0.14;100.00
39739;BME280;25422;48.286;8.484;2023-02-02T03:49:19;94793.00;;;0.22;100.00
39739;BME280;25422;48.286;8.484;2023-02-02T03:51:44;94807.53;;;0.23;100.00
39739;BME280;25422;48.286;8.484;2023-02-02T03:54:10;94811.00;;;0.22;100.00
39739;BME280;25422;48.286;8.484;2023-02-02T03:56:35;94807.53;;;0.23;100.00
39739;BME280;25422;48.286;8.484;2023-02-02T03:59:00;94813.50;;;0.24;100.00
39739;BME280;25422;48.286;8.484;2023-02-02T04:01:27;94809.25;;;0.23;100.00
39739;BME280;25422;48.286;8.484;2023-02-02T04:03:54;94802.66;;;0.33;100.00
39739;BME280;25422;48.286;8.484;2023-02-02T04:06:20;94803.47;;;0.33;100.00
39739;BME280;25422;48.286;8.484;2023-02-02T04:08:45;94804.38;;;0.32;100.00
39739;BME280;25422;48.286;8.484;2023-02-02T04:11:11;94816.72;;;0.27;100.00
39739;BME280;25422;48.286;8.484;2023-02-02T04:13:36;94797.59;;;0.31;100.00
39739;BME280;25422;48.286;8.484;2023-02-02T04:16:02;94811.00;;;0.37;100.00
39739;BME280;25422;48.286;8.484;2023-02-02T04:18:28;94815.97;;;0.40;100.00
39739;BME280;25422;48.286;8.484;2023-02-02T04:20:57;94815.22;;;0.38;100.00
39739;BME280;25422;48.286;8.484;2023-02-02T04:23:23;94808.63;;;0.33;100.00
39739;BME280;25422;48.286;8.484;2023-02-02T04:25:49;94809.72;;;0.29;100.00
39739;BME280;25422;48.286;8.484;2023-02-02T04:28:15;94816.44;;;0.32;100.00
39739;BME280;25422;48.286;8.484;2023-02-02T04:30:40;94810.38;;;0.33;100.00
39739;BME280;25422;48.286;8.484;2023-02-02T04:33:06;94817.34;;;0.31;100.00
39739;BME280;25422;48.286;8.484;2023-02-02T04:35:31;94819.09;;;0.30;100.00
39739;BME280;25422;48.286;8.484;2023-02-02T04:37:57;94825.25;;;0.28;100.00
39739;BME280;25422;48.286;8.484;2023-02-02T04:40:22;94819.28;;;0.27;100.00
39739;BME280;25422;48.286;8.484;2023-02-02T04:42:47;94825.06;;;0.31;100.00
39739;BME280;25422;48.286;8.484;2023-02-02T04:45:13;94809.72;;;0.29;100.00
39739;BME280;25422;48.286;8.484;2023-02-02T04:47:38;94813.31;;;0.27;100.00
39739;BME280;25422;48.286;8.484;2023-02-02T04:50:04;94810.63;;;0.28;100.00
39739;BME280;25422;48.286;8.484;2023-02-02T04:52:30;94817.25;;;0.32;100.00
39739;BME280;25422;48.286;8.484;2023-02-02T04:54:55;94825.81;;;0.33;100.00
39739;BME280;25422;48.286;8.484;2023-02-02T04:57:20;94817.09;;;0.36;100.00
39739;BME280;25422;48.286;8.484;2023-02-02T04:59:46;94815.97;;;0.40;100.00
39739;BME280;25422;48.286;8.484;2023-02-02T05:02:11;94825.38;;;0.41;100.00
39739;BME280;25422;48.286;8.484;2023-02-02T05:04:37;94817.66;;;0.41;100.00
39739;BME280;25422;48.286;8.484;2023-02-02T05:07:03;94823.50;;;0.43;100.00
39739;BME280;25422;48.286;8.484;2023-02-02T05:09:29;94815.50;;;0.47;100.00
39739;BME280;25422;48.286;8.484;2023-02-02T05:11:54;94829.47;;;0.43;100.00
39739;BME280;25422;48.286;8.484;2023-02-02T05:14:19;94818.47;;;0.41;100.00
39739;BME280;25422;48.286;8.484;2023-02-02T05:16:45;94813.03;;;0.46;100.00
39739;BME280;25422;48.286;8.484;2023-02-02T05:19:11;94820.66;;;0.47;100.00
39739;BME280;25422;48.286;8.484;2023-02-02T05:21:36;94822.22;;;0.50;100.00
39739;BME280;25422;48.286;8.484;2023-02-02T05:24:02;94829.13;;;0.49;100.00
39739;BME280;25422;48.286;8.484;2023-02-02T05:26:28;94829.94;;;0.50;100.00
39739;BME280;25422;48.286;8.484;2023-02-02T05:28:54;94826.34;;;0.53;100.00
39739;BME280;25422;48.286;8.484;2023-02-02T05:31:20;94821.31;;;0.51;100.00
39739;BME280;25422;48.286;8.484;2023-02-02T05:33:45;94821.41;;;0.49;100.00
39739;BME280;25422;48.286;8.484;2023-02-02T05:36:11;94828.31;;;0.49;100.00
39739;BME280;25422;48.286;8.484;2023-02-02T05:38:37;94832.50;;;0.50;100.00
39739;BME280;25422;48.286;8.484;2023-02-02T05:41:03;94833.25;;;0.52;100.00
39739;BME280;25422;48.286;8.484;2023-02-02T05:43:29;94838.22;;;0.55;100.00
39739;BME280;25422;48.286;8.484;2023-02-02T05:45:55;94838.41;;;0.52;100.00
39739;BME280;25422;48.286;8.484;2023-02-02T05:48:21;94847.06;;;0.51;100.00
39739;BME280;25422;48.286;8.484;2023-02-02T05:50:57;94826.75;;;0.46;100.00
39739;BME280;25422;48.286;8.484;2023-02-02T05:53:24;94829.31;;;0.46;100.00
39739;BME280;25422;48.286;8.484;2023-02-02T05:55:49;94838.97;;;0.43;100.00
39739;BME280;25422;48.286;8.484;2023-02-02T05:58:15;94830.78;;;0.50;100.00
39739;BME280;25422;48.286;8.484;2023-02-02T06:00:40;94835.28;;;0.47;100.00
39739;BME280;25422;48.286;8.484;2023-02-02T06:03:05;94836.94;;;0.48;100.00
39739;BME280;25422;48.286;8.484;2023-02-02T06:05:31;94836.09;;;0.47;100.00
39739;BME280;25422;48.286;8.484;2023-02-02T06:07:56;94837.66;;;0.50;100.00
39739;BME280;25422;48.286;8.484;2023-02-02T06:10:22;94841.81;;;0.53;100.00
39739;BME280;25422;48.286;8.484;2023-02-02T06:12:47;94851.84;;;0.57;100.00
39739;BME280;25422;48.286;8.484;2023-02-02T06:15:12;94852.00;;;0.54;100.00
39739;BME280;25422;48.286;8.484;2023-02-02T06:17:38;94860.69;;;0.53;100.00
39739;BME280;25422;48.286;8.484;2023-02-02T06:20:03;94861.69;;;0.50;100.00
39739;BME280;25422;48.286;8.484;2023-02-02T06:22:30;94860.69;;;0.53;100.00
39739;BME280;25422;48.286;8.484;2023-02-02T06:24:56;94860.69;;;0.53;100.00
39739;BME280;25422;48.286;8.484;2023-02-02T06:27:22;94866.00;;;0.50;100.00
39739;BME280;25422;48.286;8.484;2023-02-02T06:29:47;94875.56;;;0.48;100.00
39739;BME280;25422;48.286;8.484;2023-02-02T06:32:12;94878.97;;;0.48;100.00
39739;BME280;25422;48.286;8.484;2023-02-02T06:34:38;94883.28;;;0.48;100.00
39739;BME280;25422;48.286;8.484;2023-02-02T06:37:03;94883.09;;;0.51;100.00
39739;BME280;25422;48.286;8.484;2023-02-02T06:39:28;94871.97;;;0.50;100.00
39739;BME280;25422;48.286;8.484;2023-02-02T06:41:54;94887.44;;;0.50;100.00
39739;BME280;25422;48.286;8.484;2023-02-02T06:44:19;94881.28;;;0.53;100.00
39739;BME280;25422;48.286;8.484;2023-02-02T06:46:45;94882.28;;;0.50;100.00
39739;BME280;25422;48.286;8.484;2023-02-02T06:49:11;94882.28;;;0.50;100.00
39739;BME280;25422;48.286;8.484;2023-02-02T06:51:36;94883.28;;;0.48;100.00
39739;BME280;25422;48.286;8.484;2023-02-02T06:54:01;94883.28;;;0.48;100.00
39739;BME280;25422;48.286;8.484;2023-02-02T06:56:28;94877.22;;;0.49;100.00
39739;BME280;25422;48.286;8.484;2023-02-02T06:58:54;94891.63;;;0.52;100.00
39739;BME280;25422;48.286;8.484;2023-02-02T07:01:19;94903.03;;;0.47;100.00
39739;BME280;25422;48.286;8.484;2023-02-02T07:03:47;94895.31;;;0.47;100.00
39739;BME280;25422;48.286;8.484;2023-02-02T07:06:18;94903.03;;;0.47;100.00
39739;BME280;25422;48.286;8.484;2023-02-02T07:08:45;94903.31;;;0.43;100.00
39739;BME280;25422;48.286;8.484;2023-02-02T07:11:11;94909.56;;;0.39;100.00
39739;BME280;25422;48.286;8.484;2023-02-02T07:13:37;94902.84;;;0.36;100.00
39739;BME280;25422;48.286;8.484;2023-02-02T07:16:03;94899.81;;;0.29;100.00
39739;BME280;25422;48.286;8.484;2023-02-02T07:18:29;94897.97;;;0.31;100.00
39739;BME280;25422;48.286;8.484;2023-02-02T07:20:58;94902.19;;;0.32;100.00
39739;BME280;25422;48.286;8.484;2023-02-02T07:23:24;94911.38;;;0.37;100.00
39739;BME280;25422;48.286;8.484;2023-02-02T07:26:02;94899.38;;;0.37;100.00
39739;BME280;25422;48.286;8.484;2023-02-02T07:28:27;94899.28;;;0.39;100.00
39739;BME280;25422;48.286;8.484;2023-02-02T07:30:53;94898.34;;;0.40;100.00
39739;BME280;25422;48.286;8.484;2023-02-02T07:33:18;94900.94;;;0.40;100.00
39739;BME280;25422;48.286;8.484;2023-02-02T07:35:43;94901.66;;;0.42;100.00
39739;BME280;25422;48.286;8.484;2023-02-02T07:38:09;94899.19;;;0.40;100.00
39739;BME280;25422;48.286;8.484;2023-02-02T07:40:34;94896.50;;;0.42;100.00
39739;BME280;25422;48.286;8.484;2023-02-02T07:42:59;94901.03;;;0.38;100.00
39739;BME280;25422;48.286;8.484;2023-02-02T07:45:26;94906.72;;;0.43;100.00
39739;BME280;25422;48.286;8.484;2023-02-02T07:47:56;94904.22;;;0.42;100.00
39739;BME280;25422;48.286;8.484;2023-02-02T07:50:21;94904.06;;;0.45;100.00
39739;BME280;25422;48.286;8.484;2023-02-02T07:52:47;94907.56;;;0.44;100.00
39739;BME280;25422;48.286;8.484;2023-02-02T07:55:13;94904.78;;;0.47;100.00
39739;BME280;25422;48.286;8.484;2023-02-02T07:57:38;94907.66;;;0.42;100.00
39739;BME280;25422;48.286;8.484;2023-02-02T08:00:04;94905.91;;;0.43;100.00
39739;BME280;25422;48.286;8.484;2023-02-02T08:02:37;94906.81;;;0.42;100.00
39739;BME280;25422;48.286;8.484;2023-02-02T08:05:03;94910.22;;;0.42;100.00
39739;BME280;25422;48.286;8.484;2023-02-02T08:07:33;94915.38;;;0.42;100.00
39739;BME280;25422;48.286;8.484;2023-02-02T08:09:58;94917.94;;;0.42;100.00
39739;BME280;25422;48.286;8.484;2023-02-02T08:12:24;94908.19;;;0.47;100.00
39739;BME280;25422;48.286;8.484;2023-02-02T08:14:51;94915.09;;;0.47;100.00
39739;BME280;25422;48.286;8.484;2023-02-02T08:17:16;94913.81;;;0.54;100.00
39739;BME280;25422;48.286;8.484;2023-02-02T08:19:42;94886.41;;;0.53;100.00
39739;BME280;25422;48.286;8.484;2023-02-02T08:22:07;94888.72;;;0.58;100.00
39739;BME280;25422;48.286;8.484;2023-02-02T08:24:33;94881.81;;;0.58;100.00
39739;BME280;25422;48.286;8.484;2023-02-02T08:26:58;94883.28;;;0.62;100.00
39739;BME280;25422;48.286;8.484;2023-02-02T08:29:23;94888.44;;;0.62;100.00
39739;BME280;25422;48.286;8.484;2023-02-02T08:31:49;94892.50;;;0.66;100.00
39739;BME280;25422;48.286;8.484;2023-02-02T08:34:14;94894.13;;;0.67;100.00
39739;BME280;25422;48.286;8.484;2023-02-02T08:36:40;94882.91;;;0.69;100.00
39739;BME280;25422;48.286;8.484;2023-02-02T08:39:10;94896.34;;;0.74;100.00
39739;BME280;25422;48.286;8.484;2023-02-02T08:41:36;94885.13;;;0.75;100.00
39739;BME280;25422;48.286;8.484;2023-02-02T08:44:06;94883.47;;;0.74;100.00
39739;BME280;25422;48.286;8.484;2023-02-02T08:46:31;94885.22;;;0.73;100.00
39739;BME280;25422;48.286;8.484;2023-02-02T08:48:57;94879.34;;;0.71;100.00
39739;BME280;25422;48.286;8.484;2023-02-02T08:51:23;94886.06;;;0.74;100.00
39739;BME280;25422;48.286;8.484;2023-02-02T08:53:48;94895.44;;;0.75;100.00
39739;BME280;25422;48.286;8.484;2023-02-02T08:56:18;94894.41;;;0.77;100.00
39739;BME280;25422;48.286;8.484;2023-02-02T08:58:50;94895.34;;;0.76;100.00
39739;BME280;25422;48.286;8.484;2023-02-02T09:01:24;94890.75;;;0.81;100.00
39739;BME280;25422;48.286;8.484;2023-02-02T09:03:57;94897.44;;;0.84;100.00
39739;BME280;25422;48.286;8.484;2023-02-02T09:06:40;94901.59;;;0.87;100.00
39739;BME280;25422;48.286;8.484;2023-02-02T09:09:09;94910.16;;;0.87;100.00
39739;BME280;25422;48.286;8.484;2023-02-02T09:11:35;94902.13;;;0.92;100.00
39739;BME280;25422;48.286;8.484;2023-02-02T09:14:01;94913.56;;;1.02;100.00
39739;BME280;25422;48.286;8.484;2023-02-02T09:16:27;94907.00;;;1.11;100.00
39739;BME280;25422;48.286;8.484;2023-02-02T09:18:54;94920.53;;;1.14;100.00
39739;BME280;25422;48.286;8.484;2023-02-02T09:21:19;94945.56;;;1.12;100.00
39739;BME280;25422;48.286;8.484;2023-02-02T09:23:46;94936.09;;;1.13;100.00
39739;BME280;25422;48.286;8.484;2023-02-02T09:28:50;94951.09;;;1.06;100.00
39739;BME280;25422;48.286;8.484;2023-02-02T09:31:16;94955.50;;;1.04;100.00
39739;BME280;25422;48.286;8.484;2023-02-02T09:33:42;94956.16;;;1.08;100.00
39739;BME280;25422;48.286;8.484;2023-02-02T09:36:19;94948.03;;;1.14;100.00
39739;BME280;25422;48.286;8.484;2023-02-02T09:38:45;94957.53;;;1.13;100.00
39739;BME280;25422;48.286;8.484;2023-02-02T09:46:33;94984.31;;;1.25;100.00
39739;BME280;25422;48.286;8.484;2023-02-02T09:49:07;94992.41;;;1.19;100.00
39739;BME280;25422;48.286;8.484;2023-02-02T09:51:38;94995.91;;;1.18;100.00
39739;BME280;25422;48.286;8.484;2023-02-02T09:54:23;94988.91;;;1.20;100.00
39739;BME280;25422;48.286;8.484;2023-02-02T09:56:53;94985.03;;;1.27;100.00
39739;BME280;25422;48.286;8.484;2023-02-02T09:59:24;94967.56;;;1.32;100.00
39739;BME280;25422;48.286;8.484;2023-02-02T10:01:55;94970.78;;;1.36;100.00
39739;BME280;25422;48.286;8.484;2023-02-02T10:04:30;94979.69;;;1.45;100.00
39739;BME280;25422;48.286;8.484;2023-02-02T10:07:05;94972.69;;;1.47;100.00
39739;BME280;25422;48.286;8.484;2023-02-02T10:12:37;94973.59;;;1.60;100.00
39739;BME280;25422;48.286;8.484;2023-02-02T10:18:18;94957.81;;;1.92;100.00
39739;BME280;25422;48.286;8.484;2023-02-02T10:21:01;94961.00;;;1.83;100.00
39739;BME280;25422;48.286;8.484;2023-02-02T10:23:43;94974.84;;;1.82;100.00
39739;BME280;25422;48.286;8.484;2023-02-02T10:26:22;94964.69;;;1.79;100.00
39739;BME280;25422;48.286;8.484;2023-02-02T10:34:42;94969.34;;;1.74;100.00
39739;BME280;25422;48.286;8.484;2023-02-02T10:37:21;94977.81;;;1.61;100.00
39739;BME280;25422;48.286;8.484;2023-02-02T10:42:29;94996.63;;;1.63;100.00
39739;BME280;25422;48.286;8.484;2023-02-02T10:45:18;95001.31;;;1.57;100.00
39739;BME280;25422;48.286;8.484;2023-02-02T10:47:44;95002.44;;;1.52;100.00
39739;BME280;25422;48.286;8.484;2023-02-02T10:52:51;94993.78;;;1.54;100.00
39739;BME280;25422;48.286;8.484;2023-02-02T10:58:19;94989.34;;;1.56;100.00
39739;BME280;25422;48.286;8.484;2023-02-02T11:00:52;94984.38;;;1.52;100.00
39739;BME280;25422;48.286;8.484;2023-02-02T11:03:22;94987.25;;;1.48;100.00
39739;BME280;25422;48.286;8.484;2023-02-02T11:05:49;94981.44;;;1.44;100.00
39739;BME280;25422;48.286;8.484;2023-02-02T11:08:44;94985.59;;;1.47;100.00
39739;BME280;25422;48.286;8.484;2023-02-02T11:13:44;94973.25;;;1.52;100.00
39739;BME280;25422;48.286;8.484;2023-02-02T11:18:41;94962.78;;;1.68;100.00
39739;BME280;25422;48.286;8.484;2023-02-02T11:21:27;94978.53;;;1.78;100.00
39739;BME280;25422;48.286;8.484;2023-02-02T11:26:25;94991.34;;;1.65;100.00
39739;BME280;25422;48.286;8.484;2023-02-02T11:28:53;95001.97;;;1.60;100.00
39739;BME280;25422;48.286;8.484;2023-02-02T11:31:30;94994.03;;;1.63;100.00
39739;BME280;25422;48.286;8.484;2023-02-02T11:34:26;94998.09;;;1.67;100.00
39739;BME280;25422;48.286;8.484;2023-02-02T11:37:01;94998.78;;;1.69;100.00
39739;BME280;25422;48.286;8.484;2023-02-02T11:39:27;95003.25;;;1.67;100.00
39739;BME280;25422;48.286;8.484;2023-02-02T11:42:00;95005.06;;;1.65;100.00
39739;BME280;25422;48.286;8.484;2023-02-02T11:44:27;94999.91;;;1.65;100.00
39739;BME280;25422;48.286;8.484;2023-02-02T11:46:53;95001.56;;;1.66;100.00
39739;BME280;25422;48.286;8.484;2023-02-02T11:49:21;95014.22;;;1.71;100.00
39739;BME280;25422;48.286;8.484;2023-02-02T11:51:57;95005.06;;;1.80;100.00
39739;BME280;25422;48.286;8.484;2023-02-02T11:54:27;95003.38;;;1.79;100.00
39739;BME280;25422;48.286;8.484;2023-02-02T11:56:56;95013.81;;;1.77;100.00
39739;BME280;25422;48.286;8.484;2023-02-02T11:59:36;94999.75;;;1.68;100.00
39739;BME280;25422;48.286;8.484;2023-02-02T12:02:25;95007.47;;;1.68;100.00
39739;BME280;25422;48.286;8.484;2023-02-02T12:07:38;95014.72;;;1.76;100.00
39739;BME280;25422;48.286;8.484;2023-02-02T12:10:27;95018.88;;;1.79;100.00
39739;BME280;25422;48.286;8.484;2023-02-02T12:13:06;95012.78;;;1.80;100.00
39739;BME280;25422;48.286;8.484;2023-02-02T12:21:07;94991.56;;;1.89;100.00
39739;BME280;25422;48.286;8.484;2023-02-02T12:23:39;94994.72;;;1.94;100.00
39739;BME280;25422;48.286;8.484;2023-02-02T12:47:24;94955.09;;;2.48;100.00
39739;BME280;25422;48.286;8.484;2023-02-02T12:52:46;94964.78;;;2.45;100.00
39739;BME280;25422;48.286;8.484;2023-02-02T13:09:30;94989.91;;;1.88;100.00
39739;BME280;25422;48.286;8.484;2023-02-02T13:12:10;95005.88;;;1.80;100.00
39739;BME280;25422;48.286;8.484;2023-02-02T13:14:49;95007.63;;;1.80;100.00
39739;BME280;25422;48.286;8.484;2023-02-02T13:17:32;95008.09;;;1.72;100.00
39739;BME280;25422;48.286;8.484;2023-02-02T13:20:06;95006.53;;;1.69;100.00
39739;BME280;25422;48.286;8.484;2023-02-02T13:22:39;95002.59;;;1.64;100.00
39739;BME280;25422;48.286;8.484;2023-02-02T13:25:17;95005.16;;;1.64;100.00
39739;BME280;25422;48.286;8.484;2023-02-02T13:27:45;95008.59;;;1.64;100.00
39739;BME280;25422;48.286;8.484;2023-02-02T13:30:30;94999.19;;;1.63;100.00
39739;BME280;25422;48.286;8.484;2023-02-02T13:33:01;95010.22;;;1.65;100.00
39739;BME280;25422;48.286;8.484;2023-02-02T13:35:33;95009.22;;;1.68;100.00
39739;BME280;25422;48.286;8.484;2023-02-02T13:40:45;95011.69;;;1.84;100.00
39739;BME280;25422;48.286;8.484;2023-02-02T13:57:01;95016.38;;;1.92;100.00
39739;BME280;25422;48.286;8.484;2023-02-02T13:59:50;95029.38;;;1.90;100.00
39739;BME280;25422;48.286;8.484;2023-02-02T14:02:21;95035.47;;;1.75;100.00
39739;BME280;25422;48.286;8.484;2023-02-02T14:04:53;95037.13;;;1.76;100.00
39739;BME280;25422;48.286;8.484;2023-02-02T14:07:27;95041.56;;;1.59;100.00
39739;BME280;25422;48.286;8.484;2023-02-02T14:09:54;95039.56;;;1.50;100.00
39739;BME280;25422;48.286;8.484;2023-02-02T14:12:28;95044.16;;;1.45;100.00
39739;BME280;25422;48.286;8.484;2023-02-02T14:14:54;95038.19;;;1.44;100.00
39739;BME280;25422;48.286;8.484;2023-02-02T14:22:40;95054.66;;;1.42;100.00
39739;BME280;25422;48.286;8.484;2023-02-02T14:27:59;95061.66;;;1.40;100.00
39739;BME280;25422;48.286;8.484;2023-02-02T14:30:28;95058.34;;;1.38;100.00
39739;BME280;25422;48.286;8.484;2023-02-02T14:33:17;95064.41;;;1.37;100.00
39739;BME280;25422;48.286;8.484;2023-02-02T14:38:31;95068.38;;;1.28;100.00
39739;BME280;25422;48.286;8.484;2023-02-02T14:43:41;95082.38;;;1.24;100.00
39739;BME280;25422;48.286;8.484;2023-02-02T14:48:40;95071.06;;;1.26;100.00
39739;BME280;25422;48.286;8.484;2023-02-02T14:51:18;95067.53;;;1.27;100.00
39739;BME280;25422;48.286;8.484;2023-02-02T14:53:57;95074.34;;;1.28;100.00
39739;BME280;25422;48.286;8.484;2023-02-02T14:56:57;95086.34;;;1.29;100.00
39739;BME280;25422;48.286;8.484;2023-02-02T15:02:01;95079.25;;;1.33;100.00
39739;BME280;25422;48.286;8.484;2023-02-02T15:04:30;95075.47;;;1.39;100.00
39739;BME280;25422;48.286;8.484;2023-02-02T15:09:58;95073.28;;;1.47;100.00
39739;BME280;25422;48.286;8.484;2023-02-02T15:15:25;95074.19;;;1.46;100.00
39739;BME280;25422;48.286;8.484;2023-02-02T15:20:48;95082.09;;;1.43;100.00
39739;BME280;25422;48.286;8.484;2023-02-02T15:23:30;95077.97;;;1.40;100.00
39739;BME280;25422;48.286;8.484;2023-02-02T15:31:26;95083.13;;;1.40;100.00
39739;BME280;25422;48.286;8.484;2023-02-02T15:34:03;95079.69;;;1.40;100.00
39739;BME280;25422;48.286;8.484;2023-02-02T15:36:36;95074.53;;;1.40;100.00
39739;BME280;25422;48.286;8.484;2023-02-02T15:39:26;95077.22;;;1.38;100.00
39739;BME280;25422;48.286;8.484;2023-02-02T15:41:49;95084.13;;;1.38;100.00